Time;durP1;ratioP1;P1;durP2;ratioP2;P2;SDS_P1;SDS_P2;PMS_P1;PMS_P2;Temp;Humidity;BMP_temperature;BMP_pressure;BME280_temperature;BME280_humidity;BME280_pressure;Samples;Min_cycle;Max_cycle;Signal;HPM_P1;HPM_P2
2022/12/03 00:00:20;;;;;;;98.13;92.40;;;4.50;99.90;;;;;;4764839;30;20500;-64
2022/12/03 00:02:46;;;;;;;98.32;92.40;;;4.50;99.90;;;;;;4763711;30;20898;-64
2022/12/03 00:05:12;;;;;;;100.50;94.60;;;4.50;99.90;;;;;;4763438;30;20460;-64
2022/12/03 00:07:38;;;;;;;103.07;96.97;;;4.50;99.90;;;;;;4764503;30;20419;-64
2022/12/03 00:10:05;;;;;;;107.60;101.28;;;4.40;99.90;;;;;;4768192;30;20402;-64
2022/12/03 00:12:31;;;;;;;102.00;96.07;;;4.40;99.90;;;;;;4768525;30;20884;-63
2022/12/03 00:14:57;;;;;;;107.40;101.20;;;4.40;99.90;;;;;;4754296;30;20415;-64
2022/12/03 00:17:25;;;;;;;109.07;102.73;;;4.40;99.90;;;;;;4769070;30;20704;-63
2022/12/03 00:19:51;;;;;;;105.43;99.30;;;4.40;99.90;;;;;;4769457;30;20453;-63
2022/12/03 00:22:18;;;;;;;108.05;101.75;;;4.50;99.90;;;;;;4769692;30;20446;-64
2022/12/03 00:24:43;;;;;;;106.57;100.53;;;4.40;99.90;;;;;;4769533;30;20720;-65
2022/12/03 00:27:09;;;;;;;109.23;102.83;;;4.40;99.90;;;;;;4754538;30;20403;-64
2022/12/03 00:29:35;;;;;;;109.37;103.07;;;4.40;99.90;;;;;;4768751;30;20426;-65
2022/12/03 00:32:01;;;;;;;110.90;104.53;;;4.40;99.90;;;;;;4768140;30;20812;-63
2022/12/03 00:34:27;;;;;;;108.35;101.95;;;4.40;99.90;;;;;;4769240;30;20433;-64
2022/12/03 00:36:53;;;;;;;106.97;100.82;;;4.40;99.90;;;;;;4769544;30;20900;-63
2022/12/03 00:39:18;;;;;;;117.57;110.75;;;4.40;99.90;;;;;;4769218;30;20544;-63
2022/12/03 00:41:44;;;;;;;111.07;104.78;;;4.30;99.90;;;;;;4768352;30;20430;-64
2022/12/03 00:44:10;;;;;;;114.40;107.60;;;4.30;99.90;;;;;;4767035;30;20415;-63
2022/12/03 00:46:39;;;;;;;106.97;100.70;;;4.30;99.90;;;;;;4766430;30;20517;-63
2022/12/03 00:49:05;;;;;;;107.80;101.40;;;4.30;99.90;;;;;;4769048;30;20414;-63
2022/12/03 00:51:30;;;;;;;113.03;106.57;;;4.40;99.90;;;;;;4770539;30;20732;-63
2022/12/03 00:53:55;;;;;;;116.53;109.87;;;4.40;99.90;;;;;;4772227;30;20410;-63
2022/12/03 00:56:21;;;;;;;106.80;100.53;;;4.40;99.90;;;;;;4770739;30;20414;-63
2022/12/03 00:58:47;;;;;;;112.20;105.85;;;4.30;99.90;;;;;;4771652;30;20493;-63
2022/12/03 01:01:12;;;;;;;107.63;101.33;;;4.40;99.90;;;;;;4771685;30;20511;-63
2022/12/03 01:03:38;;;;;;;112.73;106.33;;;4.30;99.90;;;;;;4772723;30;20417;-63
2022/12/03 01:06:03;;;;;;;114.50;107.85;;;4.30;99.90;;;;;;4771449;30;20503;-64
2022/12/03 01:08:29;;;;;;;123.40;116.18;;;4.30;99.90;;;;;;4771080;30;20407;-63
2022/12/03 01:10:55;;;;;;;111.22;104.78;;;4.20;99.90;;;;;;4771870;30;20425;-63
2022/12/03 01:13:21;;;;;;;108.35;101.95;;;4.20;99.90;;;;;;4769978;30;20430;-64
2022/12/03 01:15:47;;;;;;;109.93;103.55;;;4.20;99.90;;;;;;4770372;30;20501;-64
2022/12/03 01:18:13;;;;;;;107.28;101.13;;;4.20;99.90;;;;;;4756061;30;20418;-63
2022/12/03 01:20:38;;;;;;;111.00;104.50;;;4.30;99.90;;;;;;4771768;30;20477;-65
2022/12/03 01:23:04;;;;;;;111.20;104.63;;;4.30;99.90;;;;;;4771378;30;20661;-63
2022/12/03 17:57:47;;;;;;;35.47;32.57;;;3.60;99.90;;;;;;5063848;24;22358;-63
2022/12/03 18:00:12;;;;;;;35.88;33.00;;;3.60;99.90;;;;;;4731504;30;20656;-64
2022/12/03 18:02:38;;;;;;;34.88;31.98;;;3.60;99.90;;;;;;4733592;30;20607;-65
2022/12/03 18:05:04;;;;;;;36.30;33.20;;;3.60;99.90;;;;;;4729462;30;20405;-64
2022/12/03 18:07:30;;;;;;;34.33;31.42;;;3.60;99.90;;;;;;4719582;30;20970;-64
2022/12/03 18:09:55;;;;;;;35.45;32.45;;;3.60;99.90;;;;;;4734452;30;20494;-65
2022/12/03 18:12:21;;;;;;;36.45;33.38;;;3.60;99.90;;;;;;4721943;30;20429;-65
2022/12/03 18:14:47;;;;;;;34.03;31.00;;;3.50;99.90;;;;;;4736854;30;21020;-65
2022/12/03 18:17:13;;;;;;;35.63;32.63;;;3.50;99.90;;;;;;4736041;30;20489;-65
2022/12/03 18:19:38;;;;;;;32.08;29.38;;;3.50;99.90;;;;;;4724585;30;20701;-65
2022/12/03 18:22:05;;;;;;;34.58;31.77;;;3.50;99.90;;;;;;4738727;30;20631;-66
2022/12/03 18:24:31;;;;;;;34.10;31.30;;;3.50;99.90;;;;;;4722927;30;20433;-66
2022/12/03 18:26:56;;;;;;;34.13;31.20;;;3.50;99.90;;;;;;4739831;30;20412;-66
2022/12/03 18:29:22;;;;;;;36.23;33.23;;;3.50;99.90;;;;;;4736515;30;20447;-66
2022/12/03 18:31:48;;;;;;;36.42;33.42;;;3.50;99.90;;;;;;4720795;30;20680;-66
2022/12/03 18:34:13;;;;;;;35.03;31.92;;;3.40;99.90;;;;;;4737418;30;20450;-66
2022/12/03 18:36:39;;;;;;;35.53;32.65;;;3.40;99.90;;;;;;4724142;30;20529;-66
2022/12/03 18:39:08;;;;;;;34.45;31.45;;;3.50;99.90;;;;;;4739961;30;20511;-65
2022/12/03 18:41:33;;;;;;;40.17;36.53;;;3.50;99.90;;;;;;4737587;30;20508;-65
2022/12/03 18:44:02;;;;;;;40.67;36.67;;;3.40;99.90;;;;;;4725149;30;20462;-64
2022/12/03 18:46:28;;;;;;;43.90;39.50;;;3.40;99.90;;;;;;4740125;30;20645;-65
2022/12/03 18:48:53;;;;;;;44.20;39.60;;;3.40;99.90;;;;;;4736789;30;21039;-65
2022/12/03 18:51:22;;;;;;;46.27;41.53;;;3.30;99.90;;;;;;4738395;30;21037;-67
2022/12/03 18:53:49;;;;;;;40.47;36.53;;;3.40;99.90;;;;;;4732481;30;20428;-65
2022/12/03 18:56:15;;;;;;;42.90;38.35;;;3.30;99.90;;;;;;4724005;30;20409;-66
2022/12/03 18:58:42;;;;;;;41.40;37.20;;;3.20;99.90;;;;;;4743413;30;20654;-64
2022/12/03 19:01:14;;;;;;;39.88;35.88;;;3.20;99.90;;;;;;4751120;30;20435;-65
2022/12/03 19:03:40;;;;;;;42.47;38.08;;;3.20;99.90;;;;;;4748322;30;20480;-65
2022/12/03 19:06:14;;;;;;;44.50;37.67;;;3.20;99.90;;;;;;4748607;30;20415;-65
2022/12/03 19:08:40;;;;;;;46.13;41.35;;;3.20;99.90;;;;;;4749921;30;20422;-65
2022/12/03 19:11:07;;;;;;;44.47;39.78;;;3.20;99.90;;;;;;4750297;30;20419;-65
2022/12/03 19:13:32;;;;;;;44.30;39.60;;;3.20;99.90;;;;;;4752076;30;20453;-66
2022/12/03 19:16:02;;;;;;;43.78;39.33;;;3.20;99.90;;;;;;4751166;30;20414;-65
2022/12/03 19:18:29;;;;;;;44.78;39.92;;;3.20;99.90;;;;;;4749698;30;20403;-65
2022/12/03 19:20:55;;;;;;;42.13;37.72;;;3.20;99.90;;;;;;4750834;30;20579;-65
2022/12/03 19:23:21;;;;;;;43.63;39.03;;;3.20;99.90;;;;;;4754168;30;21020;-65
2022/12/03 19:25:58;;;;;;;42.92;38.30;;;3.20;99.90;;;;;;4752119;30;20403;-65
2022/12/03 19:28:24;;;;;;;40.63;36.35;;;3.20;99.90;;;;;;4752877;30;20702;-65
2022/12/03 19:31:09;;;;;;;44.10;38.80;;;3.20;99.90;;;;;;4754204;30;20422;-65
2022/12/03 19:33:35;;;;;;;46.80;41.45;;;3.30;99.90;;;;;;4753951;30;20534;-64
2022/12/03 19:36:02;;;;;;;46.00;41.45;;;3.30;99.90;;;;;;4753484;30;20407;-65
2022/12/03 19:38:29;;;;;;;44.70;40.17;;;3.30;99.90;;;;;;4755594;30;20722;-65
2022/12/03 19:41:13;;;;;;;47.13;42.22;;;3.30;99.90;;;;;;4755740;30;20472;-66
2022/12/03 19:43:39;;;;;;;47.20;42.42;;;3.30;99.90;;;;;;4757923;30;20419;-65
2022/12/03 19:46:10;;;;;;;48.85;43.90;;;3.20;99.90;;;;;;4757050;30;20406;-65
2022/12/03 19:48:39;;;;;;;49.30;44.28;;;3.10;99.90;;;;;;4755539;30;20494;-65
2022/12/03 19:51:06;;;;;;;49.00;44.03;;;3.20;99.90;;;;;;4754462;30;20426;-65
2022/12/03 19:53:33;;;;;;;46.53;41.58;;;3.20;99.90;;;;;;4753305;30;20429;-66
2022/12/03 19:56:11;;;;;;;49.90;44.42;;;3.20;99.90;;;;;;4751901;30;20413;-65
2022/12/03 19:58:38;;;;;;;52.53;46.90;;;3.10;99.90;;;;;;4751835;30;20866;-66
2022/12/03 20:01:12;;;;;;;51.05;45.72;;;3.10;99.90;;;;;;4752208;30;20503;-65
2022/12/03 20:03:39;;;;;;;48.47;43.33;;;3.10;99.90;;;;;;4752848;30;20398;-66
2022/12/03 20:06:05;;;;;;;49.83;42.95;;;3.10;99.90;;;;;;4752412;30;20403;-66
2022/12/03 20:08:31;;;;;;;46.55;41.95;;;3.10;99.90;;;;;;4751626;30;20487;-66
2022/12/03 20:11:12;;;;;;;45.58;40.83;;;3.00;99.90;;;;;;4755194;30;20920;-66
2022/12/03 20:13:38;;;;;;;43.65;38.80;;;3.00;99.90;;;;;;4754014;30;20430;-66
2022/12/03 20:16:05;;;;;;;47.58;42.58;;;3.10;99.90;;;;;;4753169;30;20457;-65
2022/12/03 20:18:31;;;;;;;48.47;43.65;;;3.10;99.90;;;;;;4753708;30;20414;-65
2022/12/03 20:21:01;;;;;;;46.45;41.67;;;3.10;99.90;;;;;;4754712;30;20436;-65
2022/12/03 20:23:27;;;;;;;48.07;42.97;;;3.00;99.90;;;;;;4754638;30;20433;-66
2022/12/03 20:25:53;;;;;;;45.30;40.75;;;3.00;99.90;;;;;;4754421;30;20474;-65
2022/12/03 20:28:18;;;;;;;46.65;41.83;;;2.90;99.90;;;;;;4754918;30;20611;-65
2022/12/03 20:30:45;;;;;;;46.90;41.90;;;3.00;99.90;;;;;;4756422;30;20429;-66
2022/12/03 20:33:12;;;;;;;47.70;42.72;;;2.90;99.90;;;;;;4756572;30;20513;-66
2022/12/03 20:35:38;;;;;;;48.13;43.20;;;2.90;99.90;;;;;;4756473;30;20414;-66
2022/12/03 20:38:04;;;;;;;46.78;42.15;;;2.90;99.90;;;;;;4755984;30;20413;-66
2022/12/03 20:40:34;;;;;;;48.50;43.40;;;2.90;99.90;;;;;;4756370;30;20815;-66
2022/12/03 20:43:00;;;;;;;50.65;45.47;;;3.00;99.90;;;;;;4759537;30;20435;-66
2022/12/03 20:45:27;;;;;;;48.07;43.33;;;3.00;99.90;;;;;;4758509;30;20791;-65
2022/12/03 20:47:52;;;;;;;47.33;42.50;;;2.90;99.90;;;;;;4757346;30;20779;-66
2022/12/03 20:50:18;;;;;;;47.53;42.63;;;2.90;99.90;;;;;;4754326;30;20825;-66
2022/12/03 20:52:43;;;;;;;47.03;42.25;;;2.90;99.90;;;;;;4752223;30;20430;-65
2022/12/03 20:55:09;;;;;;;46.30;41.73;;;2.80;99.90;;;;;;4754273;30;20419;-66
2022/12/03 20:57:35;;;;;;;45.30;40.67;;;2.80;99.90;;;;;;4753963;30;20422;-67
2022/12/03 21:00:00;;;;;;;46.67;41.87;;;2.90;99.90;;;;;;4752408;30;20437;-66
2022/12/03 21:02:26;;;;;;;47.08;42.38;;;2.80;99.90;;;;;;4753001;30;20430;-66
2022/12/03 21:04:52;;;;;;;44.88;40.25;;;2.80;99.90;;;;;;4756129;30;20492;-66
2022/12/03 21:07:18;;;;;;;43.05;38.65;;;2.60;99.90;;;;;;4758491;30;20488;-66
2022/12/03 21:09:43;;;;;;;43.77;39.13;;;2.60;99.90;;;;;;4757737;30;20497;-66
2022/12/03 21:12:09;;;;;;;42.00;37.67;;;2.60;99.90;;;;;;4758606;30;20755;-66
2022/12/03 21:14:35;;;;;;;43.95;39.63;;;2.60;99.90;;;;;;4757920;30;20510;-65
2022/12/03 21:17:00;;;;;;;41.90;37.53;;;2.60;99.90;;;;;;4758864;30;20728;-65
2022/12/03 21:19:26;;;;;;;41.00;36.93;;;2.70;99.90;;;;;;4758122;30;20411;-65
2022/12/03 21:21:52;;;;;;;73.97;68.00;;;2.70;99.90;;;;;;4756655;30;20666;-66
2022/12/03 21:24:17;;;;;;;69.83;63.70;;;3.30;99.90;;;;;;4756741;30;20415;-66
2022/12/03 21:26:43;;;;;;;57.00;51.30;;;4.10;99.90;;;;;;4755360;30;20502;-66
2022/12/03 21:29:09;;;;;;;54.30;49.50;;;4.40;99.90;;;;;;4754541;30;20419;-66
2022/12/03 21:31:37;;;;;;;49.45;44.72;;;3.90;99.90;;;;;;4751743;30;20839;-66
2022/12/03 21:34:03;;;;;;;51.75;46.88;;;3.50;99.90;;;;;;4751701;30;20422;-65
2022/12/03 21:36:29;;;;;;;49.53;44.78;;;3.20;99.90;;;;;;4752990;30;20410;-66
2022/12/03 21:38:55;;;;;;;48.92;44.03;;;3.10;99.90;;;;;;4754457;30;20403;-66
2022/12/03 21:41:21;;;;;;;49.22;44.42;;;3.00;99.90;;;;;;4755227;30;20617;-67
2022/12/03 21:43:46;;;;;;;45.88;41.35;;;2.90;99.90;;;;;;4754897;30;20511;-66
2022/12/03 21:46:15;;;;;;;46.13;41.60;;;2.80;99.90;;;;;;4755784;30;20517;-66
2022/12/03 21:48:43;;;;;;;45.00;40.63;;;2.80;99.90;;;;;;4759471;30;20434;-64
2022/12/03 21:51:13;;;;;;;43.33;39.10;;;2.80;99.90;;;;;;4757039;30;20438;-65
2022/12/03 21:53:40;;;;;;;45.05;40.55;;;2.80;99.90;;;;;;4756166;30;20415;-65
2022/12/03 21:56:10;;;;;;;44.13;39.67;;;2.70;99.90;;;;;;4753985;30;20446;-64
2022/12/03 21:58:37;;;;;;;44.88;40.58;;;2.70;99.90;;;;;;4758477;30;20516;-65
2022/12/03 22:01:17;;;;;;;41.60;37.22;;;2.60;99.90;;;;;;4758317;30;20450;-65
2022/12/03 22:03:43;;;;;;;41.45;36.90;;;2.60;99.90;;;;;;4759412;30;20692;-65
2022/12/03 22:06:09;;;;;;;41.95;37.60;;;2.70;99.90;;;;;;4758475;30;20947;-65
2022/12/03 22:08:35;;;;;;;45.20;40.42;;;2.70;99.90;;;;;;4757714;30;20721;-66
2022/12/03 22:11:06;;;;;;;47.90;42.80;;;2.60;99.90;;;;;;4758474;30;20934;-66
2022/12/03 22:13:32;;;;;;;44.50;39.92;;;2.60;99.90;;;;;;4758806;30;20815;-66
2022/12/03 22:15:57;;;;;;;46.87;41.93;;;2.60;99.90;;;;;;4758599;30;20461;-66
2022/12/03 22:18:23;;;;;;;46.20;41.30;;;2.60;99.90;;;;;;4759667;30;20822;-65
2022/12/03 22:20:49;;;;;;;46.10;41.17;;;2.60;99.90;;;;;;4761126;30;20486;-56
2022/12/03 22:23:14;;;;;;;60.13;54.33;;;2.60;99.90;;;;;;4762734;30;20430;-65
2022/12/03 22:25:40;;;;;;;55.20;49.47;;;3.50;99.90;;;;;;4757861;30;20593;-65
2022/12/03 22:28:06;;;;;;;53.00;47.77;;;3.20;99.90;;;;;;4758261;30;20418;-66
2022/12/03 22:30:31;;;;;;;54.67;49.28;;;3.00;99.90;;;;;;4755958;30;20518;-67
2022/12/03 22:32:57;;;;;;;53.80;48.08;;;2.90;99.90;;;;;;4754478;30;20606;-64
2022/12/03 22:35:23;;;;;;;53.97;48.47;;;2.80;99.90;;;;;;4752647;30;20419;-64
2022/12/03 22:37:49;;;;;;;56.17;50.60;;;2.80;99.90;;;;;;4753980;30;20679;-65
2022/12/03 22:40:15;;;;;;;55.93;50.33;;;2.70;99.90;;;;;;4752980;30;20469;-65
2022/12/03 22:42:40;;;;;;;55.23;49.63;;;2.60;99.90;;;;;;4750994;30;20438;-65
2022/12/03 22:45:08;;;;;;;58.03;52.40;;;2.60;99.90;;;;;;4752432;30;20422;-65
2022/12/03 22:47:33;;;;;;;54.50;49.00;;;2.60;99.90;;;;;;4753379;30;20735;-66
2022/12/03 22:49:59;;;;;;;57.70;51.80;;;2.50;99.90;;;;;;4753632;30;20703;-65
2022/12/03 22:52:24;;;;;;;59.00;53.03;;;2.50;99.90;;;;;;4753791;30;20708;-65
2022/12/03 22:54:50;;;;;;;57.53;51.63;;;2.50;99.90;;;;;;4756962;30;20819;-64
2022/12/03 22:57:16;;;;;;;59.63;53.73;;;2.50;99.90;;;;;;4756445;30;20489;-64
2022/12/03 22:59:42;;;;;;;58.72;53.05;;;2.50;99.90;;;;;;4755647;30;20845;-64
2022/12/03 23:02:07;;;;;;;60.72;54.90;;;2.50;99.90;;;;;;4753595;30;20582;-65
2022/12/03 23:04:33;;;;;;;59.40;53.45;;;2.50;99.90;;;;;;4752691;30;20495;-65
2022/12/03 23:06:58;;;;;;;59.80;53.93;;;2.50;99.90;;;;;;4745736;30;20498;-65
2022/12/03 23:09:24;;;;;;;62.97;56.77;;;2.50;99.90;;;;;;4744662;30;20414;-65
2022/12/03 23:11:49;;;;;;;63.80;57.50;;;2.50;99.90;;;;;;4741539;30;20552;-65
2022/12/03 23:14:15;;;;;;;59.83;54.33;;;2.50;99.90;;;;;;4744825;30;20586;-65
2022/12/03 23:16:41;;;;;;;64.53;58.30;;;2.50;99.90;;;;;;4742662;30;20839;-65
2022/12/03 23:19:06;;;;;;;62.13;56.27;;;2.50;99.90;;;;;;4741492;30;20662;-65
2022/12/03 23:21:33;;;;;;;59.07;53.37;;;2.50;99.90;;;;;;4740645;30;20430;-65
2022/12/03 23:24:01;;;;;;;61.08;55.25;;;2.50;99.90;;;;;;4739533;30;20411;-65
2022/12/03 23:26:27;;;;;;;61.30;55.40;;;2.50;99.90;;;;;;4741559;30;20414;-65
2022/12/03 23:28:52;;;;;;;58.13;52.60;;;2.50;99.90;;;;;;4745261;30;20676;-66
2022/12/03 23:31:27;;;;;;;61.93;56.13;;;2.50;99.90;;;;;;4747581;30;20757;-66
2022/12/03 23:33:53;;;;;;;61.45;55.65;;;2.60;99.90;;;;;;4753001;30;20414;-66
2022/12/03 23:36:20;;;;;;;62.78;56.85;;;2.50;99.90;;;;;;4756261;30;20469;-66
2022/12/03 23:38:46;;;;;;;62.45;56.60;;;2.50;99.90;;;;;;4754027;30;20655;-67
2022/12/03 23:41:17;;;;;;;60.90;55.00;;;2.40;99.90;;;;;;4757007;30;20438;-67
2022/12/03 23:43:43;;;;;;;61.53;55.75;;;2.50;99.90;;;;;;4757001;30;20441;-67
2022/12/03 23:46:12;;;;;;;61.80;55.95;;;2.50;99.90;;;;;;4755875;30;20426;-67
2022/12/03 23:48:38;;;;;;;62.75;57.17;;;2.50;99.90;;;;;;4758089;30;20815;-67
2022/12/03 23:51:06;;;;;;;58.43;53.23;;;2.50;99.90;;;;;;4758911;30;20635;-67
2022/12/03 23:53:33;;;;;;;59.42;53.90;;;2.50;99.90;;;;;;4760382;30;20411;-67
2022/12/03 23:56:02;;;;;;;62.97;57.13;;;2.50;99.90;;;;;;4762100;30;20624;-67
2022/12/03 23:58:28;;;;;;;61.28;55.65;;;2.50;99.90;;;;;;4760115;30;20445;-67
